createdAt,value
2019-02-22T00:01:50.177Z,85.30
2019-02-22T00:04:20.426Z,90.23
2019-02-22T00:06:50.605Z,83.67
2019-02-22T00:09:20.768Z,80.97
2019-02-22T00:11:50.989Z,107.13
2019-02-22T00:14:21.284Z,69.63
2019-02-22T00:16:51.441Z,97.83
2019-02-22T00:19:21.650Z,73.97
2019-02-22T00:21:52.725Z,90.27
2019-02-22T00:24:22.971Z,86.87
2019-02-22T00:26:53.240Z,96.10
2019-02-22T00:29:23.403Z,89.07
2019-02-22T00:31:53.594Z,109.13
2019-02-22T00:34:23.841Z,93.47
2019-02-22T00:36:54.097Z,126.10
2019-02-22T00:39:24.347Z,115.90
2019-02-22T00:41:54.568Z,110.03
2019-02-22T00:44:24.894Z,90.50
2019-02-22T00:46:55.486Z,96.13
2019-02-22T00:49:25.746Z,93.50
2019-02-22T00:51:56.135Z,82.53
2019-02-22T00:54:26.553Z,74.77
2019-02-22T00:56:56.809Z,86.90
2019-02-22T00:59:27.043Z,82.27
2019-02-22T01:01:57.411Z,82.53
2019-02-22T01:04:27.704Z,71.63
2019-02-22T01:06:57.879Z,66.37
2019-02-22T01:09:28.182Z,61.53
2019-02-22T01:11:58.545Z,69.00
2019-02-22T01:14:28.896Z,60.53
2019-02-22T01:16:59.347Z,105.87
2019-02-22T01:19:29.534Z,102.30
2019-02-22T01:21:59.750Z,99.07
2019-02-22T01:24:31.026Z,76.07
2019-02-22T01:27:01.364Z,85.37
2019-02-22T01:29:31.726Z,58.70
2019-02-22T01:32:02.332Z,60.30
2019-02-22T01:34:32.720Z,61.47
2019-02-22T01:37:02.899Z,75.20
2019-02-22T01:39:33.398Z,83.10
2019-02-22T01:42:03.763Z,79.23
2019-02-22T01:44:34.148Z,74.37
2019-02-22T01:47:04.555Z,79.33
2019-02-22T01:49:34.922Z,61.27
2019-02-22T01:52:05.191Z,84.10
2019-02-22T01:54:35.546Z,56.43
2019-02-22T01:57:05.911Z,63.03
2019-02-22T01:59:36.203Z,82.03
2019-02-22T02:02:06.476Z,87.60
2019-02-22T02:04:36.791Z,59.37
2019-02-22T02:07:07.166Z,99.27
2019-02-22T02:09:37.530Z,89.07
2019-02-22T02:12:07.994Z,78.30
2019-02-22T02:14:38.350Z,79.33
2019-02-22T02:17:08.613Z,88.00
2019-02-22T02:19:38.823Z,82.57
2019-02-22T02:22:09.051Z,90.67
2019-02-22T02:24:39.275Z,78.20
2019-02-22T02:27:10.551Z,67.77
2019-02-22T02:29:40.736Z,59.03
2019-02-22T02:32:10.949Z,61.67
2019-02-22T02:34:41.142Z,62.20
2019-02-22T02:37:11.402Z,59.07
2019-02-22T02:39:41.618Z,59.87
2019-02-22T02:42:11.899Z,59.50
2019-02-22T02:44:42.158Z,53.90
2019-02-22T02:47:12.334Z,65.80
2019-02-22T02:49:42.551Z,67.33
2019-02-22T02:52:12.614Z,71.87
2019-02-22T02:54:42.900Z,65.70
2019-02-22T02:57:13.109Z,56.10
2019-02-22T02:59:43.252Z,62.67
2019-02-22T03:02:27.999Z,58.40
2019-02-22T03:04:58.268Z,51.57
2019-02-22T03:07:59.483Z,66.90
2019-02-22T03:10:31.463Z,62.17
2019-02-22T03:13:01.535Z,75.13
2019-02-22T03:15:31.785Z,59.33
2019-02-22T03:18:02.037Z,59.57
2019-02-22T03:20:32.209Z,62.57
2019-02-22T03:23:02.480Z,53.90
2019-02-22T03:25:32.720Z,83.23
2019-02-22T03:28:04.295Z,87.77
2019-02-22T03:30:34.420Z,86.30
2019-02-22T03:33:04.622Z,89.83
2019-02-22T03:35:34.876Z,89.87
2019-02-22T03:38:05.958Z,118.60
2019-02-22T03:40:36.291Z,102.70
2019-02-22T03:43:06.567Z,72.23
2019-02-22T03:45:36.796Z,97.10
2019-02-22T03:48:06.925Z,61.33
2019-02-22T03:50:37.119Z,62.47
2019-02-22T03:53:13.086Z,61.30
2019-02-22T03:55:43.595Z,56.73
2019-02-22T03:58:13.978Z,58.77
2019-02-22T04:00:44.299Z,52.10
2019-02-22T04:03:14.534Z,50.37
2019-02-22T04:05:44.683Z,47.10
2019-02-22T04:08:14.857Z,56.53
2019-02-22T04:10:45.083Z,56.60
2019-02-22T04:13:15.244Z,47.83
2019-02-22T04:15:45.541Z,61.30
2019-02-22T04:18:15.797Z,59.63
2019-02-22T04:20:46.014Z,60.47
2019-02-22T04:23:16.234Z,61.03
2019-02-22T04:25:46.477Z,56.90
2019-02-22T04:28:17.542Z,64.93
2019-02-22T04:30:47.838Z,61.03
2019-02-22T04:33:18.231Z,56.13
2019-02-22T04:35:48.374Z,57.87
2019-02-22T04:38:18.556Z,57.47
2019-02-22T04:40:48.755Z,58.77
2019-02-22T04:43:18.923Z,66.17
2019-02-22T04:45:49.096Z,60.63
2019-02-22T04:48:19.331Z,59.63
2019-02-22T04:50:49.440Z,60.70
2019-02-22T04:53:19.663Z,62.47
2019-02-22T04:55:49.878Z,57.63
2019-02-22T04:58:20.105Z,58.20
2019-02-22T05:00:50.331Z,61.93
2019-02-22T05:03:20.498Z,60.13
2019-02-22T05:05:50.659Z,58.57
2019-02-22T05:08:21.060Z,54.93
2019-02-22T05:10:51.160Z,54.57
2019-02-22T05:13:21.429Z,51.07
2019-02-22T05:15:51.651Z,51.93
2019-02-22T05:18:21.817Z,54.27
2019-02-22T05:20:51.887Z,49.87
2019-02-22T05:23:22.181Z,48.33
2019-02-22T05:25:52.282Z,48.60
2019-02-22T05:28:22.446Z,52.73
2019-02-22T05:30:54.196Z,48.00
2019-02-22T05:33:24.475Z,49.50
2019-02-22T05:35:54.616Z,49.03
2019-02-22T05:38:24.826Z,47.83
2019-02-22T05:40:55.038Z,48.10
2019-02-22T05:43:25.179Z,45.80
2019-02-22T05:45:55.496Z,48.33
2019-02-22T05:48:25.827Z,50.67
2019-02-22T05:50:55.931Z,53.73
2019-02-22T05:53:26.150Z,48.43
2019-02-22T05:55:56.259Z,45.53
2019-02-22T05:58:26.413Z,44.87
2019-02-22T06:00:56.616Z,46.23
2019-02-22T06:03:26.872Z,41.07
2019-02-22T06:06:00.525Z,46.37
2019-02-22T06:08:30.747Z,45.83
2019-02-22T06:11:01.019Z,45.10
2019-02-22T06:13:35.616Z,42.13
2019-02-22T06:16:05.989Z,42.80
2019-02-22T06:18:40.045Z,43.40
2019-02-22T06:21:15.315Z,44.23
2019-02-22T06:23:46.026Z,45.90
2019-02-22T06:26:17.222Z,42.73
2019-02-22T06:28:47.419Z,45.50
2019-02-22T06:31:17.713Z,43.23
2019-02-22T06:33:51.243Z,45.60
2019-02-22T06:36:21.464Z,42.23
2019-02-22T06:38:52.294Z,42.70
2019-02-22T06:41:22.525Z,44.33
2019-02-22T06:43:52.692Z,39.27
2019-02-22T06:46:22.915Z,46.80
2019-02-22T06:48:53.081Z,44.53
2019-02-22T06:51:23.310Z,43.57
2019-02-22T06:53:53.467Z,43.40
2019-02-22T06:56:24.338Z,45.27
2019-02-22T06:58:54.693Z,44.83
2019-02-22T07:01:24.903Z,41.93
2019-02-22T07:03:55.108Z,37.80
2019-02-22T07:06:25.521Z,44.80
2019-02-22T07:08:55.726Z,40.37
2019-02-22T07:11:32.822Z,38.23
2019-02-22T07:14:03.031Z,38.43
2019-02-22T07:16:33.302Z,36.10
2019-02-22T07:19:03.523Z,36.33
2019-02-22T07:21:49.089Z,42.90
2019-02-22T07:24:05.637Z,45.73
2019-02-22T07:26:35.776Z,40.93
2019-02-22T07:29:06.091Z,45.33
2019-02-22T07:31:36.287Z,39.23
2019-02-22T07:34:06.701Z,43.57
2019-02-22T07:36:37.114Z,38.93
2019-02-22T07:39:07.841Z,40.20
2019-02-22T07:41:38.169Z,39.00
2019-02-22T07:44:08.562Z,38.10
2019-02-22T07:46:38.772Z,41.23
2019-02-22T07:49:08.992Z,38.50
2019-02-22T07:51:39.206Z,38.33
2019-02-22T07:54:09.323Z,47.80
2019-02-22T07:56:39.555Z,39.67
2019-02-22T07:59:09.663Z,36.57
2019-02-22T08:01:47.577Z,42.07
2019-02-22T08:04:11.550Z,42.40
2019-02-22T08:06:42.607Z,39.33
2019-02-22T08:09:12.967Z,42.13
2019-02-22T08:11:43.328Z,38.13
2019-02-22T08:14:13.451Z,38.07
2019-02-22T08:16:43.592Z,41.77
2019-02-22T08:19:13.800Z,36.97
2019-02-22T08:21:44.135Z,36.07
2019-02-22T08:24:14.240Z,38.23
2019-02-22T08:26:44.458Z,44.47
2019-02-22T08:29:14.728Z,37.23
2019-02-22T08:31:44.822Z,37.33
2019-02-22T08:34:15.126Z,37.50
2019-02-22T08:36:46.416Z,40.97
2019-02-22T08:39:16.605Z,39.30
2019-02-22T08:41:47.088Z,37.97
2019-02-22T08:44:19.202Z,38.67
2019-02-22T08:46:49.577Z,37.67
2019-02-22T08:49:20.358Z,40.20
2019-02-22T08:51:50.554Z,38.37
2019-02-22T08:54:20.804Z,39.30
2019-02-22T08:56:50.998Z,40.37
2019-02-22T08:59:21.284Z,36.80
2019-02-22T09:01:51.285Z,36.60
2019-02-22T09:04:21.612Z,36.00
2019-02-22T09:06:52.508Z,33.93
2019-02-22T09:09:22.667Z,36.67
2019-02-22T09:11:52.895Z,34.80
2019-02-22T09:14:23.070Z,33.90
2019-02-22T09:16:53.346Z,37.40
2019-02-22T09:19:23.627Z,34.50
2019-02-22T09:21:53.826Z,34.77
2019-02-22T09:24:24.001Z,35.03
2019-02-22T09:26:54.274Z,37.70
2019-02-22T09:29:24.502Z,33.53
2019-02-22T09:31:54.821Z,35.23
2019-02-22T09:34:24.994Z,39.07
2019-02-22T09:36:58.781Z,37.47
2019-02-22T09:39:28.971Z,42.17
2019-02-22T09:42:01.390Z,37.93
2019-02-22T09:44:31.702Z,37.30
2019-02-22T09:47:02.002Z,41.43
2019-02-22T09:49:32.258Z,36.67
2019-02-22T09:52:02.503Z,39.27
2019-02-22T09:54:32.651Z,38.23
2019-02-22T09:57:02.914Z,37.47
2019-02-22T09:59:33.303Z,35.57
2019-02-22T10:02:03.634Z,38.73
2019-02-22T10:04:33.832Z,37.17
2019-02-22T10:07:04.071Z,32.73
2019-02-22T10:09:39.426Z,36.03
2019-02-22T10:12:09.837Z,35.93
2019-02-22T10:14:42.707Z,36.43
2019-02-22T10:17:12.963Z,32.03
2019-02-22T10:19:43.199Z,35.63
2019-02-22T10:22:13.378Z,28.93
2019-02-22T10:24:43.284Z,39.93
2019-02-22T10:27:13.219Z,35.27
2019-02-22T10:29:43.426Z,41.13
2019-02-22T10:32:15.913Z,39.67
2019-02-22T10:34:45.639Z,39.53
2019-02-22T10:37:15.840Z,40.40
2019-02-22T10:39:47.016Z,39.33
2019-02-22T10:42:20.131Z,39.13
2019-02-22T10:44:50.500Z,39.07
2019-02-22T10:47:20.760Z,40.27
2019-02-22T10:49:50.780Z,42.33
2019-02-22T10:52:21.054Z,38.73
2019-02-22T10:54:50.901Z,36.80
2019-02-22T10:57:20.774Z,39.37
2019-02-22T10:59:50.695Z,36.83
2019-02-22T11:02:20.654Z,35.60
2019-02-22T11:04:50.533Z,34.30
2019-02-22T11:07:20.548Z,37.07
2019-02-22T11:09:50.708Z,36.03
2019-02-22T11:12:20.542Z,33.20
2019-02-22T11:14:50.451Z,34.37
2019-02-22T11:17:20.291Z,31.40
2019-02-22T11:19:50.179Z,34.37
2019-02-22T11:22:20.060Z,36.40
2019-02-22T11:24:49.948Z,31.47
2019-02-22T11:27:19.800Z,31.47
2019-02-22T11:29:49.703Z,38.97
2019-02-22T11:32:32.868Z,34.43
2019-02-22T11:35:03.060Z,33.80
2019-02-22T11:37:32.999Z,34.07
2019-02-22T11:40:04.074Z,33.50
2019-02-22T11:42:34.040Z,32.73
2019-02-22T11:45:04.106Z,32.60
2019-02-22T11:47:34.211Z,31.17
2019-02-22T11:50:04.425Z,28.80
2019-02-22T11:52:34.550Z,30.17
2019-02-22T11:55:05.392Z,34.92
2019-02-22T11:57:35.670Z,28.17
2019-02-22T12:00:08.027Z,29.23
2019-02-22T12:02:45.145Z,26.70
2019-02-22T12:05:15.142Z,27.75
2019-02-22T12:07:45.011Z,25.70
2019-02-22T12:10:15.340Z,26.82
2019-02-22T12:12:45.218Z,25.60
2019-02-22T12:15:15.169Z,23.27
2019-02-22T12:17:45.082Z,29.30
2019-02-22T12:20:15.074Z,26.73
2019-02-22T12:22:45.210Z,27.22
2019-02-22T12:25:15.241Z,24.85
2019-02-22T12:27:45.231Z,25.12
2019-02-22T12:30:15.835Z,24.80
2019-02-22T12:32:48.901Z,18.80
2019-02-22T12:35:25.955Z,19.95
2019-02-22T12:37:55.830Z,20.08
2019-02-22T12:40:26.186Z,23.90
2019-02-22T12:42:57.025Z,17.67
2019-02-22T12:45:26.985Z,18.48
2019-02-22T12:47:56.800Z,22.52
2019-02-22T12:50:26.649Z,23.50
2019-02-22T12:52:56.566Z,20.82
2019-02-22T12:55:26.403Z,17.55
2019-02-22T12:57:56.224Z,19.12
2019-02-22T13:00:26.255Z,27.15
2019-02-22T13:03:01.902Z,14.43
2019-02-22T13:05:27.611Z,17.07
2019-02-22T13:07:57.529Z,19.95
2019-02-22T13:10:29.645Z,18.00
2019-02-22T13:12:59.510Z,19.02
2019-02-22T13:15:29.676Z,20.92
2019-02-22T13:17:59.509Z,21.42
2019-02-22T13:20:29.392Z,18.30
2019-02-22T13:22:59.686Z,22.93
2019-02-22T13:25:29.861Z,19.65
2019-02-22T13:27:59.853Z,23.95
2019-02-22T13:30:30.544Z,23.40
2019-02-22T13:33:00.447Z,12.53
2019-02-22T13:35:30.579Z,19.17
2019-02-22T13:38:00.673Z,20.45
2019-02-22T13:40:30.920Z,19.67
2019-02-22T13:43:01.146Z,20.30
2019-02-22T13:45:32.461Z,18.70
2019-02-22T13:48:02.416Z,17.20
2019-02-22T13:50:32.349Z,16.52
2019-02-22T13:53:02.328Z,22.27
2019-02-22T13:55:32.181Z,16.62
2019-02-22T13:58:02.045Z,16.12
2019-02-22T14:00:31.945Z,13.65
2019-02-22T14:03:01.846Z,14.13
2019-02-22T14:05:31.696Z,14.15
2019-02-22T14:08:01.565Z,15.70
2019-02-22T14:10:31.412Z,14.68
2019-02-22T14:13:01.262Z,14.60
2019-02-22T14:15:38.030Z,17.05
2019-02-22T14:18:02.645Z,11.63
2019-02-22T14:20:32.632Z,12.13
2019-02-22T14:23:03.583Z,15.85
2019-02-22T14:25:33.865Z,13.55
2019-02-22T14:28:03.740Z,18.23
2019-02-22T14:30:33.723Z,15.72
2019-02-22T14:33:03.579Z,12.73
2019-02-22T14:35:33.493Z,13.90
2019-02-22T14:38:03.716Z,13.30
2019-02-22T14:40:33.745Z,12.45
2019-02-22T14:43:03.554Z,11.48
2019-02-22T14:45:33.600Z,11.05
2019-02-22T14:48:04.429Z,10.05
2019-02-22T14:50:35.323Z,15.58
2019-02-22T14:53:06.518Z,13.95
2019-02-22T14:55:36.901Z,16.97
2019-02-22T14:58:07.223Z,20.95
2019-02-22T15:00:37.553Z,19.82
2019-02-22T15:03:07.828Z,24.02
2019-02-22T15:05:38.153Z,16.67
2019-02-22T15:08:08.713Z,14.85
2019-02-22T15:10:39.172Z,13.88
2019-02-22T15:13:12.588Z,18.45
2019-02-22T15:16:00.242Z,13.43
2019-02-22T15:18:23.847Z,15.05
2019-02-22T15:20:54.693Z,15.58
2019-02-22T15:23:25.306Z,14.25
2019-02-22T15:25:55.728Z,15.90
2019-02-22T15:28:26.559Z,18.87
2019-02-22T15:30:57.223Z,15.40
2019-02-22T15:33:27.520Z,16.73
2019-02-22T15:35:57.499Z,15.75
2019-02-22T15:38:28.112Z,17.55
2019-02-22T15:41:01.214Z,15.78
2019-02-22T15:43:32.603Z,18.02
2019-02-22T15:46:11.775Z,18.12
2019-02-22T15:48:34.176Z,21.33
2019-02-22T15:51:07.445Z,24.52
2019-02-22T15:53:38.773Z,22.32
2019-02-22T15:56:10.847Z,20.95
2019-02-22T15:58:59.911Z,20.75
2019-02-22T16:01:39.278Z,23.65
2019-02-22T16:04:31.428Z,19.95
2019-02-22T16:07:02.275Z,25.72
2019-02-22T16:09:35.287Z,19.07
2019-02-22T16:12:06.024Z,19.82
2019-02-22T16:14:36.863Z,22.67
2019-02-22T16:17:07.489Z,28.45
2019-02-22T16:19:38.838Z,27.48
2019-02-22T16:22:09.831Z,24.92
2019-02-22T16:24:40.592Z,26.35
2019-02-22T16:27:10.533Z,22.07
2019-02-22T16:29:40.361Z,21.15
2019-02-22T16:32:10.294Z,21.75
2019-02-22T16:34:43.421Z,26.80
2019-02-22T16:37:11.705Z,28.75
2019-02-22T16:39:41.540Z,36.03
2019-02-22T16:42:11.445Z,32.25
2019-02-22T16:44:41.292Z,35.73
2019-02-22T16:47:11.119Z,80.57
2019-02-22T16:49:41.027Z,77.62
2019-02-22T16:52:11.873Z,56.10
2019-02-22T16:54:41.715Z,50.80
2019-02-22T16:57:11.620Z,30.83
2019-02-22T16:59:41.497Z,34.33
2019-02-22T17:02:11.400Z,32.60
2019-02-22T17:04:41.337Z,39.33
2019-02-22T17:07:11.284Z,34.00
2019-02-22T17:09:41.267Z,31.60
2019-02-22T17:12:11.154Z,32.60
2019-02-22T17:14:40.992Z,32.67
2019-02-22T17:17:10.847Z,31.97
2019-02-22T17:19:40.821Z,34.47
2019-02-22T17:22:10.658Z,33.93
2019-02-22T17:24:40.492Z,28.83
2019-02-22T17:27:10.563Z,29.40
2019-02-22T17:29:40.389Z,58.30
2019-02-22T17:32:10.228Z,45.63
2019-02-22T17:34:40.304Z,37.90
2019-02-22T17:37:10.549Z,51.70
2019-02-22T17:39:40.787Z,64.33
2019-02-22T17:42:10.981Z,46.73
2019-02-22T17:44:41.158Z,50.07
2019-02-22T17:47:11.330Z,50.50
2019-02-22T17:49:41.631Z,50.43
2019-02-22T17:52:11.841Z,49.47
2019-02-22T17:54:45.136Z,50.40
2019-02-22T17:57:15.409Z,48.57
2019-02-22T17:59:47.068Z,49.37
2019-02-22T18:02:17.309Z,51.57
2019-02-22T18:04:47.491Z,51.87
2019-02-22T18:07:17.676Z,47.10
2019-02-22T18:09:48.048Z,50.23
2019-02-22T18:12:18.151Z,50.00
2019-02-22T18:14:48.391Z,47.23
2019-02-22T18:17:18.615Z,53.67
2019-02-22T18:19:48.915Z,53.30
2019-02-22T18:22:25.871Z,59.13
2019-02-22T18:24:50.980Z,56.53
2019-02-22T18:27:21.174Z,82.60
2019-02-22T18:29:51.337Z,62.63
2019-02-22T18:32:21.525Z,50.07
2019-02-22T18:34:51.639Z,50.97
2019-02-22T18:37:21.901Z,42.57
2019-02-22T18:39:52.136Z,55.23
2019-02-22T18:42:22.281Z,52.23
2019-02-22T18:44:52.524Z,47.37
2019-02-22T18:47:22.860Z,54.07
2019-02-22T18:49:53.101Z,58.53
2019-02-22T18:52:23.262Z,60.67
2019-02-22T18:54:53.516Z,55.27
2019-02-22T18:57:24.756Z,53.90
2019-02-22T18:59:55.031Z,45.60
2019-02-22T19:02:25.282Z,51.00
2019-02-22T19:07:27.283Z,43.57
2019-02-22T19:09:57.649Z,50.70
2019-02-22T19:12:28.018Z,61.40
2019-02-22T19:14:58.264Z,48.63
2019-02-22T19:17:30.648Z,49.90
2019-02-22T19:20:00.387Z,55.63
2019-02-22T19:22:30.917Z,63.93
2019-02-22T19:25:01.140Z,73.63
2019-02-22T19:27:31.550Z,74.23
2019-02-22T19:30:01.938Z,81.90
2019-02-22T19:32:32.164Z,80.37
2019-02-22T19:35:02.395Z,82.63
2019-02-22T19:37:33.107Z,92.00
2019-02-22T19:40:03.612Z,96.40
2019-02-22T19:42:33.710Z,105.80
2019-02-22T19:45:04.017Z,117.13
2019-02-22T19:47:41.479Z,124.13
2019-02-22T19:50:06.804Z,128.80
2019-02-22T19:52:37.108Z,130.40
2019-02-22T19:55:10.803Z,134.67
2019-02-22T19:57:40.384Z,132.40
2019-02-22T20:00:13.859Z,151.10
2019-02-22T20:02:44.601Z,160.97
2019-02-22T20:05:15.425Z,157.67
2019-02-22T20:07:48.902Z,173.17
2019-02-22T20:10:20.385Z,170.07
2019-02-22T20:12:50.819Z,152.40
2019-02-22T20:15:21.472Z,168.17
2019-02-22T20:17:54.426Z,159.30
2019-02-22T20:20:23.898Z,168.77
2019-02-22T20:22:54.262Z,151.73
2019-02-22T20:25:24.607Z,164.53
2019-02-22T20:27:54.883Z,186.30
2019-02-22T20:30:25.257Z,173.37
2019-02-22T20:32:55.537Z,171.77
2019-02-22T20:35:25.861Z,206.00
2019-02-22T20:37:56.071Z,149.13
2019-02-22T20:40:26.342Z,230.97
2019-02-22T20:42:56.460Z,296.93
2019-02-22T20:45:26.728Z,495.50
2019-02-22T20:48:04.769Z,200.33
2019-02-22T20:50:28.872Z,155.73
2019-02-22T20:52:59.090Z,142.77
2019-02-22T20:55:29.317Z,143.07
2019-02-22T20:57:59.518Z,149.33
2019-02-22T21:00:29.751Z,147.00
2019-02-22T21:03:01.013Z,148.60
2019-02-22T21:05:31.217Z,151.07
2019-02-22T21:08:01.499Z,149.87
2019-02-22T21:10:31.761Z,157.47
2019-02-22T21:13:02.248Z,151.83
2019-02-22T21:15:32.417Z,158.97
2019-02-22T21:18:02.679Z,158.50
2019-02-22T21:20:32.892Z,166.37
2019-02-22T21:23:03.074Z,174.37
2019-02-22T21:25:33.315Z,158.93
2019-02-22T21:28:03.571Z,166.00
2019-02-22T21:30:33.741Z,173.43
2019-02-22T21:33:03.895Z,177.40
2019-02-22T21:35:34.019Z,173.97
2019-02-22T21:38:04.101Z,174.47
2019-02-22T21:40:34.432Z,178.00
2019-02-22T21:43:04.696Z,165.07
2019-02-22T21:45:34.865Z,182.73
2019-02-22T21:48:05.010Z,180.00
2019-02-22T21:50:35.237Z,187.30
2019-02-22T21:53:05.408Z,182.70
2019-02-22T21:55:35.569Z,191.93
2019-02-22T21:58:05.822Z,190.47
2019-02-22T22:00:36.025Z,203.57
2019-02-22T22:03:06.238Z,205.97
2019-02-22T22:05:37.340Z,220.10
2019-02-22T22:08:07.565Z,196.33
2019-02-22T22:10:37.881Z,208.20
2019-02-22T22:13:08.012Z,214.37
2019-02-22T22:15:38.224Z,210.30
2019-02-22T22:18:08.455Z,206.00
2019-02-22T22:20:38.735Z,209.83
2019-02-22T22:23:08.882Z,215.23
2019-02-22T22:25:39.054Z,212.17
2019-02-22T22:28:09.274Z,220.17
2019-02-22T22:30:39.675Z,211.70
2019-02-22T22:33:10.344Z,213.43
2019-02-22T22:35:40.516Z,205.23
2019-02-22T22:38:10.778Z,199.70
2019-02-22T22:40:41.062Z,209.33
2019-02-22T22:43:11.167Z,197.23
2019-02-22T22:45:41.393Z,204.97
2019-02-22T22:48:11.619Z,190.93
2019-02-22T22:50:42.058Z,193.53
2019-02-22T22:53:12.379Z,190.60
2019-02-22T22:55:42.650Z,205.43
2019-02-22T22:58:12.848Z,183.07
2019-02-22T23:01:16.209Z,206.83
2019-02-22T23:03:46.556Z,187.17
2019-02-22T23:06:17.983Z,203.27
2019-02-22T23:08:48.365Z,218.70
2019-02-22T23:11:19.133Z,198.90
2019-02-22T23:13:49.421Z,203.63
2019-02-22T23:16:19.839Z,216.07
2019-02-22T23:19:01.150Z,199.17
2019-02-22T23:21:22.497Z,214.77
2019-02-22T23:23:52.821Z,181.17
2019-02-22T23:26:23.012Z,204.50
2019-02-22T23:28:53.200Z,208.10
2019-02-22T23:31:23.406Z,206.37
2019-02-22T23:33:53.623Z,192.60
2019-02-22T23:36:23.850Z,197.77
2019-02-22T23:38:54.062Z,212.97
2019-02-22T23:41:24.237Z,219.87
2019-02-22T23:43:54.410Z,220.40
2019-02-22T23:46:24.696Z,226.40
2019-02-22T23:48:54.801Z,235.70
2019-02-22T23:51:24.969Z,244.60
2019-02-22T23:53:55.267Z,237.90
2019-02-22T23:56:25.581Z,188.03
2019-02-22T23:58:55.704Z,183.93
